sensor_id;sensor_type;location;lat;lon;timestamp;temperature;humidity
13229;DHT22;6680;53.220;10.402;2023-05-10T00:01:50;13.20;99.90
13229;DHT22;6680;53.220;10.402;2023-05-10T00:04:18;13.20;99.90
13229;DHT22;6680;53.220;10.402;2023-05-10T00:06:46;13.20;99.90
13229;DHT22;6680;53.220;10.402;2023-05-10T00:09:13;13.10;99.90
13229;DHT22;6680;53.220;10.402;2023-05-10T00:11:40;13.10;99.90
13229;DHT22;6680;53.220;10.402;2023-05-10T00:14:06;13.10;99.90
13229;DHT22;6680;53.220;10.402;2023-05-10T00:16:33;13.00;99.90
13229;DHT22;6680;53.220;10.402;2023-05-10T00:19:00;13.00;99.90
13229;DHT22;6680;53.220;10.402;2023-05-10T00:21:28;13.00;99.90
13229;DHT22;6680;53.220;10.402;2023-05-10T00:23:55;13.00;99.90
13229;DHT22;6680;53.220;10.402;2023-05-10T00:26:22;13.00;99.90
13229;DHT22;6680;53.220;10.402;2023-05-10T00:28:48;13.00;99.90
13229;DHT22;6680;53.220;10.402;2023-05-10T00:31:15;13.00;99.90
13229;DHT22;6680;53.220;10.402;2023-05-10T00:33:42;12.90;99.90
13229;DHT22;6680;53.220;10.402;2023-05-10T00:36:08;12.90;99.90
13229;DHT22;6680;53.220;10.402;2023-05-10T00:38:36;13.00;99.90
13229;DHT22;6680;53.220;10.402;2023-05-10T00:41:03;12.80;99.90
13229;DHT22;6680;53.220;10.402;2023-05-10T00:43:30;12.80;99.90
13229;DHT22;6680;53.220;10.402;2023-05-10T00:45:57;12.80;99.90
13229;DHT22;6680;53.220;10.402;2023-05-10T00:48:24;12.80;99.90
13229;DHT22;6680;53.220;10.402;2023-05-10T00:50:50;12.70;99.90
13229;DHT22;6680;53.220;10.402;2023-05-10T00:53:17;12.70;99.90
13229;DHT22;6680;53.220;10.402;2023-05-10T00:55:46;12.70;99.90
13229;DHT22;6680;53.220;10.402;2023-05-10T00:58:13;12.60;99.90
13229;DHT22;6680;53.220;10.402;2023-05-10T01:00:42;12.60;99.90
13229;DHT22;6680;53.220;10.402;2023-05-10T01:03:10;12.60;99.90
13229;DHT22;6680;53.220;10.402;2023-05-10T01:05:36;12.60;99.90
13229;DHT22;6680;53.220;10.402;2023-05-10T01:08:03;12.60;99.90
13229;DHT22;6680;53.220;10.402;2023-05-10T01:10:30;12.60;99.90
13229;DHT22;6680;53.220;10.402;2023-05-10T01:12:59;12.60;99.90
13229;DHT22;6680;53.220;10.402;2023-05-10T01:15:26;12.60;99.90
13229;DHT22;6680;53.220;10.402;2023-05-10T01:17:53;12.50;99.90
13229;DHT22;6680;53.220;10.402;2023-05-10T01:20:20;12.50;99.90
13229;DHT22;6680;53.220;10.402;2023-05-10T01:23:11;12.50;99.90
13229;DHT22;6680;53.220;10.402;2023-05-10T01:26:25;12.50;99.90
13229;DHT22;6680;53.220;10.402;2023-05-10T01:29:16;12.40;99.90
13229;DHT22;6680;53.220;10.402;2023-05-10T01:34:59;12.40;99.90
13229;DHT22;6680;53.220;10.402;2023-05-10T01:37:33;12.30;99.90
13229;DHT22;6680;53.220;10.402;2023-05-10T01:40:08;12.30;99.90
13229;DHT22;6680;53.220;10.402;2023-05-10T01:42:40;12.20;99.90
13229;DHT22;6680;53.220;10.402;2023-05-10T01:45:14;12.20;99.90
13229;DHT22;6680;53.220;10.402;2023-05-10T01:47:50;12.20;99.90
13229;DHT22;6680;53.220;10.402;2023-05-10T01:50:23;12.20;99.90
13229;DHT22;6680;53.220;10.402;2023-05-10T01:52:53;12.10;99.90
13229;DHT22;6680;53.220;10.402;2023-05-10T01:55:24;12.10;99.90
13229;DHT22;6680;53.220;10.402;2023-05-10T01:57:58;12.10;99.90
13229;DHT22;6680;53.220;10.402;2023-05-10T02:00:27;12.00;99.90
13229;DHT22;6680;53.220;10.402;2023-05-10T02:02:57;12.00;99.90
13229;DHT22;6680;53.220;10.402;2023-05-10T02:05:24;11.90;99.90
13229;DHT22;6680;53.220;10.402;2023-05-10T02:07:51;11.90;99.90
13229;DHT22;6680;53.220;10.402;2023-05-10T02:10:19;11.90;99.90
13229;DHT22;6680;53.220;10.402;2023-05-10T02:12:48;11.90;99.90
13229;DHT22;6680;53.220;10.402;2023-05-10T02:15:19;11.80;99.90
13229;DHT22;6680;53.220;10.402;2023-05-10T02:17:47;11.80;99.90
13229;DHT22;6680;53.220;10.402;2023-05-10T02:20:17;11.80;99.90
13229;DHT22;6680;53.220;10.402;2023-05-10T02:22:45;11.80;99.90
13229;DHT22;6680;53.220;10.402;2023-05-10T02:25:13;11.80;99.90
13229;DHT22;6680;53.220;10.402;2023-05-10T02:27:42;11.70;99.90
13229;DHT22;6680;53.220;10.402;2023-05-10T02:30:11;11.70;99.90
13229;DHT22;6680;53.220;10.402;2023-05-10T02:32:39;11.70;99.90
13229;DHT22;6680;53.220;10.402;2023-05-10T02:35:07;11.60;99.90
13229;DHT22;6680;53.220;10.402;2023-05-10T02:37:37;11.50;99.90
13229;DHT22;6680;53.220;10.402;2023-05-10T02:40:05;11.60;99.90
13229;DHT22;6680;53.220;10.402;2023-05-10T02:42:35;11.50;99.90
13229;DHT22;6680;53.220;10.402;2023-05-10T02:45:07;11.40;99.90
13229;DHT22;6680;53.220;10.402;2023-05-10T02:47:34;11.50;99.90
13229;DHT22;6680;53.220;10.402;2023-05-10T02:50:01;11.40;99.90
13229;DHT22;6680;53.220;10.402;2023-05-10T02:52:30;11.40;99.90
13229;DHT22;6680;53.220;10.402;2023-05-10T02:55:05;11.40;99.90
13229;DHT22;6680;53.220;10.402;2023-05-10T02:57:40;11.40;99.90
13229;DHT22;6680;53.220;10.402;2023-05-10T03:00:08;11.40;99.90
13229;DHT22;6680;53.220;10.402;2023-05-10T03:02:35;11.40;99.90
13229;DHT22;6680;53.220;10.402;2023-05-10T03:05:02;11.30;99.90
13229;DHT22;6680;53.220;10.402;2023-05-10T03:07:29;11.30;99.90
13229;DHT22;6680;53.220;10.402;2023-05-10T03:09:56;11.20;99.90
13229;DHT22;6680;53.220;10.402;2023-05-10T03:12:31;11.30;99.90
13229;DHT22;6680;53.220;10.402;2023-05-10T03:15:03;11.20;99.90
13229;DHT22;6680;53.220;10.402;2023-05-10T03:17:39;11.30;99.90
13229;DHT22;6680;53.220;10.402;2023-05-10T03:20:10;11.30;99.90
13229;DHT22;6680;53.220;10.402;2023-05-10T03:22:40;11.30;99.90
13229;DHT22;6680;53.220;10.402;2023-05-10T03:25:09;11.40;99.90
13229;DHT22;6680;53.220;10.402;2023-05-10T03:27:40;11.30;99.90
13229;DHT22;6680;53.220;10.402;2023-05-10T03:30:11;11.40;99.90
13229;DHT22;6680;53.220;10.402;2023-05-10T03:32:38;11.30;99.90
13229;DHT22;6680;53.220;10.402;2023-05-10T03:35:07;11.30;99.90
13229;DHT22;6680;53.220;10.402;2023-05-10T03:37:34;11.30;99.90
13229;DHT22;6680;53.220;10.402;2023-05-10T03:40:00;11.30;99.90
13229;DHT22;6680;53.220;10.402;2023-05-10T03:42:28;11.40;99.90
13229;DHT22;6680;53.220;10.402;2023-05-10T03:44:56;11.40;99.90
13229;DHT22;6680;53.220;10.402;2023-05-10T03:47:23;11.40;99.90
13229;DHT22;6680;53.220;10.402;2023-05-10T03:49:49;11.50;99.90
13229;DHT22;6680;53.220;10.402;2023-05-10T03:52:16;11.50;99.90
13229;DHT22;6680;53.220;10.402;2023-05-10T03:54:43;11.50;99.90
13229;DHT22;6680;53.220;10.402;2023-05-10T03:57:10;11.50;99.90
13229;DHT22;6680;53.220;10.402;2023-05-10T03:59:37;11.50;99.90
13229;DHT22;6680;53.220;10.402;2023-05-10T04:02:05;11.60;99.90
13229;DHT22;6680;53.220;10.402;2023-05-10T04:04:31;11.60;99.90
13229;DHT22;6680;53.220;10.402;2023-05-10T04:06:58;11.60;99.90
13229;DHT22;6680;53.220;10.402;2023-05-10T04:09:25;11.60;99.90
13229;DHT22;6680;53.220;10.402;2023-05-10T04:11:51;11.60;99.90
13229;DHT22;6680;53.220;10.402;2023-05-10T04:14:18;11.70;99.90
13229;DHT22;6680;53.220;10.402;2023-05-10T04:16:45;11.70;99.90
13229;DHT22;6680;53.220;10.402;2023-05-10T04:19:13;11.70;99.90
13229;DHT22;6680;53.220;10.402;2023-05-10T04:21:39;11.70;99.90
13229;DHT22;6680;53.220;10.402;2023-05-10T04:24:06;11.80;99.90
13229;DHT22;6680;53.220;10.402;2023-05-10T04:26:33;11.70;99.90
13229;DHT22;6680;53.220;10.402;2023-05-10T04:29:00;11.80;99.90
13229;DHT22;6680;53.220;10.402;2023-05-10T04:31:26;11.80;99.90
13229;DHT22;6680;53.220;10.402;2023-05-10T04:33:53;11.80;99.90
13229;DHT22;6680;53.220;10.402;2023-05-10T04:36:21;11.80;99.90
13229;DHT22;6680;53.220;10.402;2023-05-10T04:38:48;11.90;99.90
13229;DHT22;6680;53.220;10.402;2023-05-10T04:41:15;11.90;99.90
13229;DHT22;6680;53.220;10.402;2023-05-10T04:43:41;12.00;99.90
13229;DHT22;6680;53.220;10.402;2023-05-10T04:46:08;12.10;99.90
13229;DHT22;6680;53.220;10.402;2023-05-10T04:48:35;12.20;99.90
13229;DHT22;6680;53.220;10.402;2023-05-10T04:51:01;12.20;99.90
13229;DHT22;6680;53.220;10.402;2023-05-10T04:53:30;12.30;99.90
13229;DHT22;6680;53.220;10.402;2023-05-10T04:55:57;12.40;99.90
13229;DHT22;6680;53.220;10.402;2023-05-10T04:58:24;12.50;99.90
13229;DHT22;6680;53.220;10.402;2023-05-10T05:00:51;12.70;99.90
13229;DHT22;6680;53.220;10.402;2023-05-10T05:03:18;12.80;99.90
13229;DHT22;6680;53.220;10.402;2023-05-10T05:05:44;12.90;99.90
13229;DHT22;6680;53.220;10.402;2023-05-10T05:08:11;13.00;99.90
13229;DHT22;6680;53.220;10.402;2023-05-10T05:10:39;13.20;99.90
13229;DHT22;6680;53.220;10.402;2023-05-10T05:13:06;13.30;99.90
13229;DHT22;6680;53.220;10.402;2023-05-10T05:15:33;13.50;99.90
13229;DHT22;6680;53.220;10.402;2023-05-10T05:17:59;13.70;99.90
13229;DHT22;6680;53.220;10.402;2023-05-10T05:20:26;13.90;99.90
13229;DHT22;6680;53.220;10.402;2023-05-10T05:22:53;14.00;99.90
13229;DHT22;6680;53.220;10.402;2023-05-10T05:25:20;14.20;99.90
13229;DHT22;6680;53.220;10.402;2023-05-10T05:27:48;14.50;99.90
13229;DHT22;6680;53.220;10.402;2023-05-10T05:30:15;14.90;99.90
13229;DHT22;6680;53.220;10.402;2023-05-10T05:32:41;15.30;99.90
13229;DHT22;6680;53.220;10.402;2023-05-10T05:35:08;15.60;99.90
13229;DHT22;6680;53.220;10.402;2023-05-10T05:37:35;15.90;99.90
13229;DHT22;6680;53.220;10.402;2023-05-10T05:40:03;16.10;99.90
13229;DHT22;6680;53.220;10.402;2023-05-10T05:42:31;16.50;99.90
13229;DHT22;6680;53.220;10.402;2023-05-10T05:44:59;16.80;99.90
13229;DHT22;6680;53.220;10.402;2023-05-10T05:47:25;17.10;99.90
13229;DHT22;6680;53.220;10.402;2023-05-10T05:49:53;17.20;99.90
13229;DHT22;6680;53.220;10.402;2023-05-10T05:52:20;17.60;99.90
13229;DHT22;6680;53.220;10.402;2023-05-10T05:54:47;17.70;99.90
13229;DHT22;6680;53.220;10.402;2023-05-10T05:57:14;18.00;99.90
13229;DHT22;6680;53.220;10.402;2023-05-10T05:59:40;18.30;99.90
13229;DHT22;6680;53.220;10.402;2023-05-10T06:02:10;18.30;99.90
13229;DHT22;6680;53.220;10.402;2023-05-10T06:04:37;18.10;99.90
13229;DHT22;6680;53.220;10.402;2023-05-10T06:07:04;18.00;99.90
13229;DHT22;6680;53.220;10.402;2023-05-10T06:09:30;17.80;99.90
13229;DHT22;6680;53.220;10.402;2023-05-10T06:11:57;17.60;99.90
13229;DHT22;6680;53.220;10.402;2023-05-10T06:14:24;17.40;99.90
13229;DHT22;6680;53.220;10.402;2023-05-10T06:16:50;17.10;99.90
13229;DHT22;6680;53.220;10.402;2023-05-10T06:19:18;17.00;99.90
13229;DHT22;6680;53.220;10.402;2023-05-10T06:21:45;16.80;99.90
13229;DHT22;6680;53.220;10.402;2023-05-10T06:24:12;16.70;99.90
13229;DHT22;6680;53.220;10.402;2023-05-10T06:26:39;16.80;99.90
13229;DHT22;6680;53.220;10.402;2023-05-10T06:29:05;16.90;99.90
13229;DHT22;6680;53.220;10.402;2023-05-10T06:31:32;16.70;99.90
13229;DHT22;6680;53.220;10.402;2023-05-10T06:33:59;16.70;99.90
13229;DHT22;6680;53.220;10.402;2023-05-10T06:36:27;16.50;99.90
13229;DHT22;6680;53.220;10.402;2023-05-10T06:38:54;16.30;99.90
13229;DHT22;6680;53.220;10.402;2023-05-10T06:41:20;16.30;99.90
13229;DHT22;6680;53.220;10.402;2023-05-10T06:43:47;16.40;99.90
13229;DHT22;6680;53.220;10.402;2023-05-10T06:46:14;16.30;99.90
13229;DHT22;6680;53.220;10.402;2023-05-10T06:48:40;16.40;99.90
13229;DHT22;6680;53.220;10.402;2023-05-10T06:51:07;16.30;99.90
13229;DHT22;6680;53.220;10.402;2023-05-10T06:53:35;16.40;99.90
13229;DHT22;6680;53.220;10.402;2023-05-10T06:56:02;16.40;99.90
13229;DHT22;6680;53.220;10.402;2023-05-10T06:58:29;16.70;99.90
13229;DHT22;6680;53.220;10.402;2023-05-10T07:01:01;16.40;99.90
13229;DHT22;6680;53.220;10.402;2023-05-10T07:03:28;16.50;99.90
13229;DHT22;6680;53.220;10.402;2023-05-10T07:06:00;16.60;99.90
13229;DHT22;6680;53.220;10.402;2023-05-10T07:08:28;16.70;99.90
13229;DHT22;6680;53.220;10.402;2023-05-10T07:11:01;16.80;99.90
13229;DHT22;6680;53.220;10.402;2023-05-10T07:13:29;16.80;99.90
13229;DHT22;6680;53.220;10.402;2023-05-10T07:15:55;16.80;99.90
13229;DHT22;6680;53.220;10.402;2023-05-10T07:18:22;16.90;99.90
13229;DHT22;6680;53.220;10.402;2023-05-10T07:20:49;17.00;99.90
13229;DHT22;6680;53.220;10.402;2023-05-10T07:23:15;17.10;99.90
13229;DHT22;6680;53.220;10.402;2023-05-10T07:25:45;17.30;99.90
13229;DHT22;6680;53.220;10.402;2023-05-10T07:28:13;17.40;99.90
13229;DHT22;6680;53.220;10.402;2023-05-10T07:30:40;17.40;99.90
13229;DHT22;6680;53.220;10.402;2023-05-10T07:33:07;17.60;99.90
13229;DHT22;6680;53.220;10.402;2023-05-10T07:35:33;17.70;99.90
13229;DHT22;6680;53.220;10.402;2023-05-10T07:38:00;17.60;99.90
13229;DHT22;6680;53.220;10.402;2023-05-10T07:40:28;17.60;99.90
13229;DHT22;6680;53.220;10.402;2023-05-10T07:42:54;17.70;99.90
13229;DHT22;6680;53.220;10.402;2023-05-10T07:45:23;17.50;99.90
13229;DHT22;6680;53.220;10.402;2023-05-10T07:47:50;17.50;99.90
13229;DHT22;6680;53.220;10.402;2023-05-10T07:50:16;17.30;99.90
13229;DHT22;6680;53.220;10.402;2023-05-10T07:52:43;17.30;99.90
13229;DHT22;6680;53.220;10.402;2023-05-10T07:55:10;17.30;99.90
13229;DHT22;6680;53.220;10.402;2023-05-10T07:57:37;17.40;99.90
13229;DHT22;6680;53.220;10.402;2023-05-10T08:00:05;17.50;99.90
13229;DHT22;6680;53.220;10.402;2023-05-10T08:02:35;17.60;99.90
13229;DHT22;6680;53.220;10.402;2023-05-10T08:05:01;17.80;99.90
13229;DHT22;6680;53.220;10.402;2023-05-10T08:07:28;17.90;99.90
13229;DHT22;6680;53.220;10.402;2023-05-10T08:09:55;18.00;99.90
13229;DHT22;6680;53.220;10.402;2023-05-10T08:12:22;18.20;99.90
13229;DHT22;6680;53.220;10.402;2023-05-10T08:14:48;18.30;99.90
13229;DHT22;6680;53.220;10.402;2023-05-10T08:17:15;18.50;99.90
13229;DHT22;6680;53.220;10.402;2023-05-10T08:19:43;18.70;99.90
13229;DHT22;6680;53.220;10.402;2023-05-10T08:22:10;18.90;99.90
13229;DHT22;6680;53.220;10.402;2023-05-10T08:24:36;19.00;99.90
13229;DHT22;6680;53.220;10.402;2023-05-10T08:27:04;18.90;99.90
13229;DHT22;6680;53.220;10.402;2023-05-10T08:29:31;18.80;99.90
13229;DHT22;6680;53.220;10.402;2023-05-10T08:31:58;18.80;99.90
13229;DHT22;6680;53.220;10.402;2023-05-10T08:34:26;18.90;99.90
13229;DHT22;6680;53.220;10.402;2023-05-10T08:36:54;18.90;99.90
13229;DHT22;6680;53.220;10.402;2023-05-10T08:39:21;18.80;99.90
13229;DHT22;6680;53.220;10.402;2023-05-10T08:41:51;18.70;99.90
13229;DHT22;6680;53.220;10.402;2023-05-10T08:44:20;18.40;99.90
13229;DHT22;6680;53.220;10.402;2023-05-10T08:46:48;18.20;99.90
13229;DHT22;6680;53.220;10.402;2023-05-10T08:49:18;18.00;99.90
13229;DHT22;6680;53.220;10.402;2023-05-10T08:51:49;17.90;99.90
13229;DHT22;6680;53.220;10.402;2023-05-10T08:54:19;17.70;99.90
13229;DHT22;6680;53.220;10.402;2023-05-10T08:56:46;17.60;99.90
13229;DHT22;6680;53.220;10.402;2023-05-10T08:59:13;17.60;99.90
13229;DHT22;6680;53.220;10.402;2023-05-10T09:01:42;17.60;99.90
13229;DHT22;6680;53.220;10.402;2023-05-10T09:04:09;17.70;99.90
13229;DHT22;6680;53.220;10.402;2023-05-10T09:06:37;17.80;99.90
13229;DHT22;6680;53.220;10.402;2023-05-10T09:09:05;17.90;99.90
13229;DHT22;6680;53.220;10.402;2023-05-10T09:11:33;17.70;99.90
13229;DHT22;6680;53.220;10.402;2023-05-10T09:14:01;17.70;99.90
13229;DHT22;6680;53.220;10.402;2023-05-10T09:16:27;17.70;99.90
13229;DHT22;6680;53.220;10.402;2023-05-10T09:18:54;17.70;99.90
13229;DHT22;6680;53.220;10.402;2023-05-10T09:21:21;17.80;99.90
13229;DHT22;6680;53.220;10.402;2023-05-10T09:23:48;17.90;99.90
13229;DHT22;6680;53.220;10.402;2023-05-10T09:26:16;18.10;99.90
13229;DHT22;6680;53.220;10.402;2023-05-10T09:28:54;17.70;99.90
13229;DHT22;6680;53.220;10.402;2023-05-10T09:31:21;18.10;99.90
13229;DHT22;6680;53.220;10.402;2023-05-10T09:33:49;18.00;99.90
13229;DHT22;6680;53.220;10.402;2023-05-10T09:36:17;18.10;99.90
13229;DHT22;6680;53.220;10.402;2023-05-10T09:38:47;18.30;99.90
13229;DHT22;6680;53.220;10.402;2023-05-10T09:41:18;18.10;99.90
13229;DHT22;6680;53.220;10.402;2023-05-10T09:43:45;18.00;99.90
13229;DHT22;6680;53.220;10.402;2023-05-10T09:46:14;18.00;99.90
13229;DHT22;6680;53.220;10.402;2023-05-10T09:48:42;18.00;99.90
13229;DHT22;6680;53.220;10.402;2023-05-10T09:51:10;18.00;99.90
13229;DHT22;6680;53.220;10.402;2023-05-10T09:53:36;17.90;99.90
13229;DHT22;6680;53.220;10.402;2023-05-10T09:56:03;17.80;99.90
13229;DHT22;6680;53.220;10.402;2023-05-10T09:58:30;17.90;99.90
13229;DHT22;6680;53.220;10.402;2023-05-10T10:00:57;17.90;99.90
13229;DHT22;6680;53.220;10.402;2023-05-10T10:03:25;17.90;99.90
13229;DHT22;6680;53.220;10.402;2023-05-10T10:05:52;18.00;99.90
13229;DHT22;6680;53.220;10.402;2023-05-10T10:08:21;18.10;99.90
13229;DHT22;6680;53.220;10.402;2023-05-10T10:10:49;18.20;99.90
13229;DHT22;6680;53.220;10.402;2023-05-10T10:13:16;18.10;99.90
13229;DHT22;6680;53.220;10.402;2023-05-10T10:15:43;18.00;99.90
13229;DHT22;6680;53.220;10.402;2023-05-10T10:18:13;17.80;99.90
13229;DHT22;6680;53.220;10.402;2023-05-10T10:20:42;17.70;99.90
13229;DHT22;6680;53.220;10.402;2023-05-10T10:23:08;17.50;99.90
13229;DHT22;6680;53.220;10.402;2023-05-10T10:25:36;17.20;99.90
13229;DHT22;6680;53.220;10.402;2023-05-10T10:28:12;17.00;99.90
13229;DHT22;6680;53.220;10.402;2023-05-10T10:30:43;16.80;99.90
13229;DHT22;6680;53.220;10.402;2023-05-10T10:33:36;16.70;99.90
13229;DHT22;6680;53.220;10.402;2023-05-10T10:36:07;16.50;99.90
13229;DHT22;6680;53.220;10.402;2023-05-10T10:41:28;16.40;99.90
13229;DHT22;6680;53.220;10.402;2023-05-10T10:44:23;16.30;99.90
13229;DHT22;6680;53.220;10.402;2023-05-10T10:49:50;16.20;99.90
13229;DHT22;6680;53.220;10.402;2023-05-10T10:52:25;16.20;99.90
13229;DHT22;6680;53.220;10.402;2023-05-10T10:54:58;16.20;99.90
13229;DHT22;6680;53.220;10.402;2023-05-10T10:57:27;16.20;99.90
13229;DHT22;6680;53.220;10.402;2023-05-10T11:00:20;16.20;99.90
13229;DHT22;6680;53.220;10.402;2023-05-10T11:02:49;16.20;99.90
13229;DHT22;6680;53.220;10.402;2023-05-10T11:05:39;16.30;99.90
13229;DHT22;6680;53.220;10.402;2023-05-10T11:08:10;16.30;99.90
13229;DHT22;6680;53.220;10.402;2023-05-10T11:10:37;16.40;99.90
13229;DHT22;6680;53.220;10.402;2023-05-10T11:13:05;16.50;99.90
13229;DHT22;6680;53.220;10.402;2023-05-10T11:15:34;16.60;99.90
13229;DHT22;6680;53.220;10.402;2023-05-10T11:18:17;16.70;99.90
13229;DHT22;6680;53.220;10.402;2023-05-10T11:20:44;16.70;99.90
13229;DHT22;6680;53.220;10.402;2023-05-10T11:23:14;16.80;99.90
13229;DHT22;6680;53.220;10.402;2023-05-10T11:25:42;16.80;99.90
13229;DHT22;6680;53.220;10.402;2023-05-10T11:28:10;16.90;99.90
13229;DHT22;6680;53.220;10.402;2023-05-10T11:30:38;17.00;99.90
13229;DHT22;6680;53.220;10.402;2023-05-10T11:33:05;17.00;99.90
13229;DHT22;6680;53.220;10.402;2023-05-10T11:35:37;17.00;99.90
13229;DHT22;6680;53.220;10.402;2023-05-10T11:38:06;17.10;99.90
13229;DHT22;6680;53.220;10.402;2023-05-10T11:40:34;17.20;99.90
13229;DHT22;6680;53.220;10.402;2023-05-10T11:43:01;17.20;99.90
13229;DHT22;6680;53.220;10.402;2023-05-10T11:45:28;17.40;99.90
13229;DHT22;6680;53.220;10.402;2023-05-10T11:47:57;17.60;99.90
13229;DHT22;6680;53.220;10.402;2023-05-10T11:50:24;17.70;99.90
13229;DHT22;6680;53.220;10.402;2023-05-10T11:52:51;17.80;99.90
13229;DHT22;6680;53.220;10.402;2023-05-10T11:55:18;17.90;99.90
13229;DHT22;6680;53.220;10.402;2023-05-10T11:57:47;17.90;99.90
13229;DHT22;6680;53.220;10.402;2023-05-10T12:00:14;18.00;99.90
13229;DHT22;6680;53.220;10.402;2023-05-10T12:02:41;18.00;99.90
13229;DHT22;6680;53.220;10.402;2023-05-10T12:05:09;18.10;99.90
13229;DHT22;6680;53.220;10.402;2023-05-10T12:07:36;18.10;99.90
13229;DHT22;6680;53.220;10.402;2023-05-10T12:10:05;18.30;99.90
13229;DHT22;6680;53.220;10.402;2023-05-10T12:12:37;18.40;99.90
13229;DHT22;6680;53.220;10.402;2023-05-10T12:15:06;18.40;99.90
13229;DHT22;6680;53.220;10.402;2023-05-10T12:17:37;18.40;99.90
13229;DHT22;6680;53.220;10.402;2023-05-10T12:20:14;18.40;99.90
13229;DHT22;6680;53.220;10.402;2023-05-10T12:22:43;18.40;99.90
13229;DHT22;6680;53.220;10.402;2023-05-10T12:25:10;18.40;99.90
13229;DHT22;6680;53.220;10.402;2023-05-10T12:27:36;18.20;99.90
13229;DHT22;6680;53.220;10.402;2023-05-10T12:30:06;18.10;99.90
13229;DHT22;6680;53.220;10.402;2023-05-10T12:32:40;17.90;99.90
13229;DHT22;6680;53.220;10.402;2023-05-10T12:35:07;17.70;99.90
13229;DHT22;6680;53.220;10.402;2023-05-10T12:37:35;17.70;99.90
13229;DHT22;6680;53.220;10.402;2023-05-10T12:40:06;17.60;99.90
13229;DHT22;6680;53.220;10.402;2023-05-10T12:42:34;17.60;99.90
13229;DHT22;6680;53.220;10.402;2023-05-10T12:45:01;17.60;99.90
13229;DHT22;6680;53.220;10.402;2023-05-10T12:47:30;17.60;99.90
13229;DHT22;6680;53.220;10.402;2023-05-10T12:49:56;17.60;99.90
13229;DHT22;6680;53.220;10.402;2023-05-10T12:52:23;17.70;99.90
13229;DHT22;6680;53.220;10.402;2023-05-10T12:54:50;17.90;99.90
13229;DHT22;6680;53.220;10.402;2023-05-10T12:57:17;18.10;99.90
13229;DHT22;6680;53.220;10.402;2023-05-10T12:59:43;18.30;99.90
13229;DHT22;6680;53.220;10.402;2023-05-10T13:02:10;18.40;99.90
13229;DHT22;6680;53.220;10.402;2023-05-10T13:04:38;18.50;99.90
13229;DHT22;6680;53.220;10.402;2023-05-10T13:07:05;18.60;99.90
13229;DHT22;6680;53.220;10.402;2023-05-10T13:09:32;18.70;99.90
13229;DHT22;6680;53.220;10.402;2023-05-10T13:11:59;18.70;99.90
13229;DHT22;6680;53.220;10.402;2023-05-10T13:14:26;18.70;99.90
13229;DHT22;6680;53.220;10.402;2023-05-10T13:16:53;18.70;99.90
13229;DHT22;6680;53.220;10.402;2023-05-10T13:19:20;18.80;99.90
13229;DHT22;6680;53.220;10.402;2023-05-10T13:21:48;18.80;99.90
13229;DHT22;6680;53.220;10.402;2023-05-10T13:24:15;18.90;99.90
13229;DHT22;6680;53.220;10.402;2023-05-10T13:26:43;19.00;99.90
13229;DHT22;6680;53.220;10.402;2023-05-10T13:29:09;19.00;99.90
13229;DHT22;6680;53.220;10.402;2023-05-10T13:31:36;19.10;99.90
13229;DHT22;6680;53.220;10.402;2023-05-10T13:34:03;19.00;99.90
13229;DHT22;6680;53.220;10.402;2023-05-10T13:36:30;18.90;99.90
13229;DHT22;6680;53.220;10.402;2023-05-10T13:38:58;18.90;99.90
13229;DHT22;6680;53.220;10.402;2023-05-10T13:41:26;18.80;99.90
13229;DHT22;6680;53.220;10.402;2023-05-10T13:43:53;18.80;99.90
13229;DHT22;6680;53.220;10.402;2023-05-10T13:46:20;18.80;99.90
13229;DHT22;6680;53.220;10.402;2023-05-10T13:48:46;18.70;99.90
13229;DHT22;6680;53.220;10.402;2023-05-10T13:51:13;18.80;99.90
13229;DHT22;6680;53.220;10.402;2023-05-10T13:53:40;18.80;99.90
13229;DHT22;6680;53.220;10.402;2023-05-10T13:56:08;18.80;99.90
13229;DHT22;6680;53.220;10.402;2023-05-10T13:58:35;18.90;99.90
13229;DHT22;6680;53.220;10.402;2023-05-10T14:01:01;18.80;99.90
13229;DHT22;6680;53.220;10.402;2023-05-10T14:03:30;18.90;99.90
13229;DHT22;6680;53.220;10.402;2023-05-10T14:05:57;19.00;99.90
13229;DHT22;6680;53.220;10.402;2023-05-10T14:08:24;19.10;99.90
13229;DHT22;6680;53.220;10.402;2023-05-10T14:10:52;19.30;99.90
13229;DHT22;6680;53.220;10.402;2023-05-10T14:13:20;19.50;99.90
13229;DHT22;6680;53.220;10.402;2023-05-10T14:15:47;19.70;99.90
13229;DHT22;6680;53.220;10.402;2023-05-10T14:18:13;19.90;99.90
13229;DHT22;6680;53.220;10.402;2023-05-10T14:20:40;20.00;99.90
13229;DHT22;6680;53.220;10.402;2023-05-10T14:23:07;20.00;99.90
13229;DHT22;6680;53.220;10.402;2023-05-10T14:25:34;20.00;99.90
13229;DHT22;6680;53.220;10.402;2023-05-10T14:28:00;20.00;99.90
13229;DHT22;6680;53.220;10.402;2023-05-10T14:30:28;20.00;99.90
13229;DHT22;6680;53.220;10.402;2023-05-10T14:32:56;19.90;99.90
13229;DHT22;6680;53.220;10.402;2023-05-10T14:35:23;19.90;99.90
13229;DHT22;6680;53.220;10.402;2023-05-10T14:37:50;19.90;99.90
13229;DHT22;6680;53.220;10.402;2023-05-10T14:40:17;20.00;99.90
13229;DHT22;6680;53.220;10.402;2023-05-10T14:42:44;20.10;99.90
13229;DHT22;6680;53.220;10.402;2023-05-10T14:45:11;20.20;99.90
13229;DHT22;6680;53.220;10.402;2023-05-10T14:47:39;20.30;99.90
13229;DHT22;6680;53.220;10.402;2023-05-10T14:50:06;20.40;99.90
13229;DHT22;6680;53.220;10.402;2023-05-10T14:52:33;20.40;99.90
13229;DHT22;6680;53.220;10.402;2023-05-10T14:55:00;20.20;99.90
13229;DHT22;6680;53.220;10.402;2023-05-10T14:57:27;20.10;99.90
13229;DHT22;6680;53.220;10.402;2023-05-10T14:59:54;20.10;99.90
13229;DHT22;6680;53.220;10.402;2023-05-10T15:02:21;20.00;99.90
13229;DHT22;6680;53.220;10.402;2023-05-10T15:04:49;20.00;99.90
13229;DHT22;6680;53.220;10.402;2023-05-10T15:07:16;19.90;99.90
13229;DHT22;6680;53.220;10.402;2023-05-10T15:09:43;19.90;99.90
13229;DHT22;6680;53.220;10.402;2023-05-10T15:12:10;19.80;99.90
13229;DHT22;6680;53.220;10.402;2023-05-10T15:14:37;19.80;99.90
13229;DHT22;6680;53.220;10.402;2023-05-10T15:17:06;19.70;99.90
13229;DHT22;6680;53.220;10.402;2023-05-10T15:19:33;19.70;99.90
13229;DHT22;6680;53.220;10.402;2023-05-10T15:22:01;19.60;99.90
13229;DHT22;6680;53.220;10.402;2023-05-10T15:24:28;19.70;99.90
13229;DHT22;6680;53.220;10.402;2023-05-10T15:26:55;19.70;99.90
13229;DHT22;6680;53.220;10.402;2023-05-10T15:29:21;19.70;99.90
13229;DHT22;6680;53.220;10.402;2023-05-10T15:31:49;19.70;99.90
13229;DHT22;6680;53.220;10.402;2023-05-10T15:34:16;19.70;99.90
13229;DHT22;6680;53.220;10.402;2023-05-10T15:36:43;19.60;99.90
13229;DHT22;6680;53.220;10.402;2023-05-10T15:39:11;19.60;99.90
13229;DHT22;6680;53.220;10.402;2023-05-10T15:41:38;19.60;99.90
13229;DHT22;6680;53.220;10.402;2023-05-10T15:44:05;19.50;99.90
13229;DHT22;6680;53.220;10.402;2023-05-10T15:46:31;19.50;99.90